createdAt,value
2023-03-11T00:01:42.014Z,99081.47
2023-03-11T00:04:11.364Z,99076.91
2023-03-11T00:06:40.232Z,99069.78
2023-03-11T00:09:10.631Z,99064.94
2023-03-11T00:11:42.094Z,99063.81
2023-03-11T00:14:11.951Z,99067.31
2023-03-11T00:16:42.263Z,99070.38
2023-03-11T00:19:12.198Z,99070.84
2023-03-11T00:21:42.019Z,99069.81
2023-03-11T00:24:11.492Z,99074.03
2023-03-11T00:26:40.211Z,99071.84
2023-03-11T00:29:10.266Z,99072.88
2023-03-11T00:31:39.786Z,99070.69
2023-03-11T00:34:09.953Z,99077.69
2023-03-11T00:36:39.903Z,99066.38
2023-03-11T00:39:09.912Z,99075.25
2023-03-11T00:41:39.477Z,99069.50
2023-03-11T00:44:08.357Z,99073.75
2023-03-11T00:46:39.628Z,99068.72
2023-03-11T00:49:10.287Z,99067.44
2023-03-11T00:51:40.290Z,99066.34
2023-03-11T00:54:09.787Z,99073.50
2023-03-11T00:56:39.491Z,99065.69
2023-03-11T00:59:09.991Z,99070.84
2023-03-11T01:01:39.960Z,99066.38
2023-03-11T01:04:10.135Z,99069.19
2023-03-11T01:06:45.592Z,99054.03
2023-03-11T01:09:16.031Z,99061.69
2023-03-11T01:11:47.466Z,99060.19
2023-03-11T01:14:16.854Z,99050.53
2023-03-11T01:16:47.224Z,99049.69
2023-03-11T01:19:18.333Z,99044.03
2023-03-11T01:21:47.601Z,99049.88
2023-03-11T01:24:16.124Z,99052.47
2023-03-11T01:26:46.321Z,99055.66
2023-03-11T01:29:16.064Z,99053.53
2023-03-11T01:31:46.005Z,99048.94
2023-03-11T01:34:15.551Z,99063.06
2023-03-11T01:36:44.177Z,99062.06
2023-03-11T01:39:14.091Z,99048.84
2023-03-11T01:41:43.816Z,99042.19
2023-03-11T01:44:14.516Z,99059.81
2023-03-11T01:46:54.394Z,99057.00
2023-03-11T01:49:32.637Z,99056.47
2023-03-11T01:52:08.426Z,99061.03
2023-03-11T01:54:44.724Z,99057.19
2023-03-11T01:57:15.768Z,99070.97
2023-03-11T01:59:54.755Z,99055.34
2023-03-11T02:02:50.337Z,99060.91
2023-03-11T02:05:25.687Z,99069.75
2023-03-11T02:07:55.550Z,99071.22
2023-03-11T02:10:28.762Z,99062.88
2023-03-11T02:12:59.374Z,99064.50
2023-03-11T02:15:32.156Z,99059.25
2023-03-11T02:18:06.879Z,99062.34
2023-03-11T02:20:55.930Z,99061.06
2023-03-11T02:23:35.486Z,99067.66
2023-03-11T02:26:22.035Z,99060.13
2023-03-11T02:28:54.762Z,99071.06
2023-03-11T02:31:28.216Z,99061.22
2023-03-11T02:34:03.348Z,99060.56
2023-03-11T02:36:35.825Z,99056.91
2023-03-11T02:39:09.471Z,99059.78
2023-03-11T02:41:44.098Z,99057.94
2023-03-11T02:44:16.638Z,99053.81
2023-03-11T02:46:47.983Z,99053.66
2023-03-11T02:49:18.124Z,99053.03
2023-03-11T02:51:48.037Z,99050.50
2023-03-11T02:54:18.006Z,99048.03
2023-03-11T02:56:47.625Z,99058.69
2023-03-11T02:59:18.011Z,99054.59
2023-03-11T03:01:48.142Z,99056.81
2023-03-11T03:04:18.077Z,99054.72
2023-03-11T03:06:46.919Z,99053.81
2023-03-11T03:09:19.154Z,99056.41
2023-03-11T03:11:49.292Z,99060.41
2023-03-11T03:14:19.974Z,99074.56
2023-03-11T03:16:50.368Z,99069.88
2023-03-11T03:19:21.484Z,99072.97
2023-03-11T03:21:54.185Z,99082.78
2023-03-11T03:24:24.474Z,99087.97
2023-03-11T03:26:58.834Z,99094.78
2023-03-11T03:29:28.496Z,99095.31
2023-03-11T03:32:01.300Z,99095.72
2023-03-11T03:34:32.230Z,99086.78
2023-03-11T03:37:02.089Z,99089.44
2023-03-11T03:39:34.677Z,99088.88
2023-03-11T03:42:04.527Z,99095.19
2023-03-11T03:44:36.679Z,99105.84
2023-03-11T03:47:08.013Z,99112.63
2023-03-11T03:49:38.227Z,99117.56
2023-03-11T03:52:08.114Z,99117.97
2023-03-11T03:54:39.600Z,99117.81
2023-03-11T03:57:08.093Z,99112.00
2023-03-11T03:59:44.616Z,99116.94
2023-03-11T04:02:14.847Z,99126.06
2023-03-11T04:04:44.440Z,99110.78
2023-03-11T04:07:14.454Z,99130.16
2023-03-11T04:09:44.591Z,99128.28
2023-03-11T04:12:18.903Z,99153.97
2023-03-11T04:14:50.884Z,99136.91
2023-03-11T04:17:20.225Z,99142.06
2023-03-11T04:19:50.747Z,99143.00
2023-03-11T04:22:20.382Z,99140.00
2023-03-11T04:24:51.404Z,99133.19
2023-03-11T04:27:20.707Z,99147.91
2023-03-11T04:29:52.116Z,99141.94
2023-03-11T04:32:23.377Z,99130.75
2023-03-11T04:34:52.820Z,99127.78
2023-03-11T04:37:23.212Z,99146.78
2023-03-11T04:39:54.483Z,99153.59
2023-03-11T04:42:23.950Z,99154.00
2023-03-11T04:44:54.953Z,99149.06
2023-03-11T04:47:24.306Z,99145.31
2023-03-11T04:49:53.939Z,99146.50
2023-03-11T04:52:24.752Z,99154.59
2023-03-11T04:54:56.425Z,99153.16
2023-03-11T04:57:28.503Z,99166.28
2023-03-11T05:00:02.300Z,99178.38
2023-03-11T05:02:32.889Z,99163.53
2023-03-11T05:05:04.168Z,99162.88
2023-03-11T05:07:34.052Z,99157.59
2023-03-11T05:10:03.700Z,99144.13
2023-03-11T05:12:34.694Z,99142.81
2023-03-11T05:15:04.840Z,99141.06
2023-03-11T05:17:35.022Z,99146.34
2023-03-11T05:20:08.189Z,99163.84
2023-03-11T05:22:39.717Z,99141.72
2023-03-11T05:25:08.760Z,99166.50
2023-03-11T05:27:42.316Z,99145.66
2023-03-11T05:30:12.470Z,99152.72
2023-03-11T05:32:44.113Z,99150.22
2023-03-11T05:35:13.979Z,99135.28
2023-03-11T05:37:43.277Z,99140.28
2023-03-11T05:40:13.822Z,99148.00
2023-03-11T05:42:43.319Z,99126.38
2023-03-11T05:45:15.830Z,99140.94
2023-03-11T05:47:47.692Z,99135.81
2023-03-11T05:50:19.359Z,99143.91
2023-03-11T05:52:50.568Z,99136.72
2023-03-11T05:55:20.393Z,99141.88
2023-03-11T05:57:53.887Z,99162.06
2023-03-11T06:00:24.704Z,99141.34
2023-03-11T06:02:56.589Z,99148.16
2023-03-11T06:05:28.368Z,99163.25
2023-03-11T06:07:59.797Z,99154.44
2023-03-11T06:10:31.323Z,99148.59
2023-03-11T06:13:01.824Z,99151.16
2023-03-11T06:15:35.653Z,99158.84
2023-03-11T06:18:06.137Z,99163.53
2023-03-11T06:20:39.453Z,99159.59
2023-03-11T06:23:08.031Z,99177.75
2023-03-11T06:25:37.778Z,99159.69
2023-03-11T06:28:07.361Z,99169.72
2023-03-11T06:30:36.660Z,99166.47
2023-03-11T06:33:12.313Z,99174.72
2023-03-11T06:35:42.715Z,99184.75
2023-03-11T06:38:12.232Z,99168.56
2023-03-11T06:40:41.901Z,99165.91
2023-03-11T06:43:11.691Z,99184.09
2023-03-11T06:45:43.365Z,99173.91
2023-03-11T06:48:12.605Z,99165.75
2023-03-11T06:50:43.206Z,99169.91
2023-03-11T06:53:12.420Z,99174.78
2023-03-11T06:55:42.113Z,99172.88
2023-03-11T06:58:24.904Z,99176.09
2023-03-11T07:00:56.234Z,99168.16
2023-03-11T07:03:28.769Z,99158.22
2023-03-11T07:06:01.871Z,99165.38
2023-03-11T07:08:31.724Z,99170.47
2023-03-11T07:11:11.929Z,99166.34
2023-03-11T07:13:43.371Z,99167.22
2023-03-11T07:16:24.522Z,99162.72
2023-03-11T07:19:01.957Z,99165.16
2023-03-11T07:21:34.063Z,99162.28
2023-03-11T07:24:04.838Z,99157.81
2023-03-11T07:26:36.796Z,99152.13
2023-03-11T07:29:07.596Z,99155.06
2023-03-11T07:31:37.863Z,99152.53
2023-03-11T07:34:11.879Z,99146.91
2023-03-11T07:36:42.570Z,99155.06
2023-03-11T07:39:16.484Z,99145.19
2023-03-11T07:41:48.307Z,99135.16
2023-03-11T07:44:18.813Z,99130.78
2023-03-11T07:46:48.575Z,99135.63
2023-03-11T07:49:18.638Z,99124.72
2023-03-11T07:51:48.286Z,99158.13
2023-03-11T07:54:18.064Z,99134.84
2023-03-11T07:56:47.418Z,99138.06
2023-03-11T07:59:17.904Z,99130.97
2023-03-11T08:01:47.784Z,99127.69
2023-03-11T08:04:18.128Z,99118.84
2023-03-11T08:06:48.371Z,99134.34
2023-03-11T08:09:19.695Z,99129.31
2023-03-11T08:11:49.869Z,99127.28
2023-03-11T08:14:19.731Z,99141.63
2023-03-11T08:16:48.553Z,99140.78
2023-03-11T08:19:18.373Z,99138.25
2023-03-11T08:21:48.804Z,99134.34
2023-03-11T08:24:19.538Z,99142.78
2023-03-11T08:26:48.920Z,99129.25
2023-03-11T08:29:18.318Z,99125.03
2023-03-11T08:31:47.899Z,99133.56
2023-03-11T08:34:19.477Z,99136.69
2023-03-11T08:36:50.426Z,99121.81
2023-03-11T08:39:20.196Z,99122.56
2023-03-11T08:41:50.321Z,99129.78
2023-03-11T08:44:20.213Z,99132.09
2023-03-11T08:46:51.478Z,99130.81
2023-03-11T08:49:20.565Z,99125.75
2023-03-11T08:51:51.090Z,99147.69
2023-03-11T08:54:21.808Z,99142.53
2023-03-11T08:56:51.032Z,99150.72
2023-03-11T08:59:20.585Z,99164.38
2023-03-11T09:01:49.987Z,99176.97
2023-03-11T09:04:19.452Z,99171.63
2023-03-11T09:06:49.998Z,99188.41
2023-03-11T09:09:21.330Z,99201.59
2023-03-11T09:11:51.580Z,99202.63
2023-03-11T09:14:20.612Z,99202.78
2023-03-11T09:16:52.179Z,99207.41
2023-03-11T09:19:22.235Z,99208.09
2023-03-11T09:21:51.928Z,99205.44
2023-03-11T09:24:23.020Z,99210.13
2023-03-11T09:26:52.238Z,99214.78
2023-03-11T09:29:22.194Z,99219.00
2023-03-11T09:31:55.181Z,99218.56
2023-03-11T09:34:24.522Z,99223.88
2023-03-11T09:36:54.106Z,99219.91
2023-03-11T09:39:23.204Z,99207.41
2023-03-11T09:41:58.675Z,99223.25
2023-03-11T09:44:47.395Z,99223.78
2023-03-11T09:47:22.650Z,99229.34
2023-03-11T09:50:07.673Z,99226.22
2023-03-11T09:52:54.149Z,99230.00
2023-03-11T09:55:44.086Z,99232.81
2023-03-11T09:58:15.914Z,99236.16
2023-03-11T10:00:45.976Z,99243.38
2023-03-11T10:03:39.688Z,99245.81
2023-03-11T10:06:20.656Z,99244.13
2023-03-11T10:09:08.090Z,99250.16
2023-03-11T10:12:02.701Z,99257.31
2023-03-11T10:14:53.922Z,99272.97
2023-03-11T10:17:23.639Z,99259.09
2023-03-11T10:20:23.297Z,99277.75
2023-03-11T10:23:21.804Z,99262.56
2023-03-11T10:25:55.938Z,99262.38
2023-03-11T10:28:34.910Z,99272.63
2023-03-11T10:31:37.688Z,99273.97
2023-03-11T10:34:22.961Z,99270.59
2023-03-11T10:37:11.339Z,99274.41
2023-03-11T10:39:40.319Z,99259.69
2023-03-11T10:42:28.073Z,99264.94
2023-03-11T10:44:59.968Z,99274.19
2023-03-11T10:47:31.213Z,99284.78
2023-03-11T10:50:02.196Z,99281.31
2023-03-11T10:52:31.844Z,99278.19
2023-03-11T10:55:04.239Z,99280.50
2023-03-11T10:57:40.417Z,99280.63
2023-03-11T11:00:14.331Z,99287.00
2023-03-11T11:02:52.150Z,99287.50
2023-03-11T11:05:22.741Z,99299.63
2023-03-11T11:08:04.150Z,99303.16
2023-03-11T11:10:35.523Z,99302.81
2023-03-11T11:13:15.799Z,99312.47
2023-03-11T11:16:06.009Z,99316.91
2023-03-11T11:19:06.468Z,99324.34
2023-03-11T11:21:38.529Z,99327.06
2023-03-11T11:24:19.879Z,99335.06
2023-03-11T11:27:24.055Z,99336.16
2023-03-11T11:30:13.069Z,99349.56
2023-03-11T11:32:43.364Z,99349.97
2023-03-11T11:35:18.474Z,99360.63
2023-03-11T11:38:02.238Z,99366.75
2023-03-11T11:40:35.713Z,99357.50
2023-03-11T11:43:18.532Z,99354.97
2023-03-11T11:45:55.218Z,99355.44
2023-03-11T11:48:43.832Z,99358.88
2023-03-11T11:51:37.865Z,99360.56
2023-03-11T11:54:31.825Z,99371.09
2023-03-11T11:57:11.930Z,99360.88
2023-03-11T11:59:42.508Z,99367.56
2023-03-11T12:02:17.419Z,99377.69
2023-03-11T12:04:49.351Z,99387.59
2023-03-11T12:07:34.171Z,99380.66
2023-03-11T12:10:22.881Z,99385.25
2023-03-11T12:13:02.181Z,99388.09
2023-03-11T12:15:40.187Z,99389.41
2023-03-11T12:18:21.049Z,99393.88
2023-03-11T12:20:56.812Z,99407.59
2023-03-11T12:23:55.845Z,99401.88
2023-03-11T12:26:28.301Z,99410.16
2023-03-11T12:29:30.419Z,99421.22
2023-03-11T12:32:04.215Z,99420.69
2023-03-11T12:34:36.751Z,99428.31
2023-03-11T12:37:18.497Z,99425.66
2023-03-11T12:39:47.746Z,99426.22
2023-03-11T12:42:28.549Z,99436.19
2023-03-11T12:45:36.939Z,99423.94
2023-03-11T12:48:47.367Z,99442.44
2023-03-11T12:51:31.105Z,99439.91
2023-03-11T12:54:42.538Z,99446.28
2023-03-11T12:57:38.763Z,99445.94
2023-03-11T13:00:39.865Z,99444.28
2023-03-11T13:03:38.965Z,99448.25
2023-03-11T13:06:24.079Z,99458.41
2023-03-11T13:08:56.058Z,99465.41
2023-03-11T13:11:49.022Z,99465.22
2023-03-11T13:14:30.421Z,99475.78
2023-03-11T13:17:28.561Z,99473.63
2023-03-11T13:20:02.410Z,99470.19
2023-03-11T13:23:05.125Z,99479.75
2023-03-11T13:25:44.566Z,99488.34
2023-03-11T13:28:26.133Z,99483.00
2023-03-11T13:31:15.781Z,99490.06
2023-03-11T13:33:48.827Z,99482.22
2023-03-11T13:36:38.508Z,99493.59
2023-03-11T13:39:26.556Z,99486.34
2023-03-11T13:41:57.207Z,99484.50
2023-03-11T13:44:39.431Z,99490.94
2023-03-11T13:47:15.226Z,99487.31
2023-03-11T13:49:50.069Z,99492.03
2023-03-11T13:52:28.285Z,99491.31
2023-03-11T13:57:56.414Z,99483.97
2023-03-11T14:00:31.812Z,99496.53
2023-03-11T14:03:04.674Z,99481.47
2023-03-11T14:05:36.358Z,99478.34
2023-03-11T14:08:25.939Z,99483.97
2023-03-11T14:11:00.658Z,99490.97
2023-03-11T14:13:32.789Z,99495.00
2023-03-11T14:16:08.504Z,99486.28
2023-03-11T14:18:43.256Z,99483.59
2023-03-11T14:21:23.457Z,99495.25
2023-03-11T14:23:55.630Z,99494.19
2023-03-11T14:26:32.757Z,99499.19
2023-03-11T14:29:10.221Z,99507.16
2023-03-11T14:31:42.175Z,99501.38
2023-03-11T14:34:23.286Z,99509.59
2023-03-11T14:36:58.871Z,99516.75
2023-03-11T14:39:34.100Z,99521.59
2023-03-11T14:42:03.263Z,99526.94
2023-03-11T14:44:41.523Z,99537.72
2023-03-11T14:47:28.111Z,99534.88
2023-03-11T14:49:59.150Z,99549.34
2023-03-11T14:52:34.034Z,99540.78
2023-03-11T14:55:03.409Z,99549.34
2023-03-11T14:57:58.961Z,99548.72
2023-03-11T15:00:47.601Z,99544.94
2023-03-11T15:03:28.269Z,99543.66
2023-03-11T15:05:59.973Z,99551.59
2023-03-11T15:08:36.436Z,99546.22
2023-03-11T15:11:21.356Z,99569.91
2023-03-11T15:13:51.766Z,99545.91
2023-03-11T15:16:37.240Z,99546.72
2023-03-11T15:19:34.345Z,99567.88
2023-03-11T15:22:24.358Z,99570.78
2023-03-11T15:24:58.972Z,99574.16
2023-03-11T15:27:36.720Z,99566.00
2023-03-11T15:30:23.839Z,99574.91
2023-03-11T15:32:52.778Z,99576.53
2023-03-11T15:35:24.876Z,99568.59
2023-03-11T15:38:20.967Z,99573.34
2023-03-11T15:41:04.269Z,99570.34
2023-03-11T15:43:36.045Z,99574.00
2023-03-11T15:46:04.494Z,99575.34
2023-03-11T15:48:33.901Z,99588.84
2023-03-11T15:51:02.677Z,99600.63
2023-03-11T15:53:32.269Z,99595.25
2023-03-11T15:56:13.630Z,99603.81
2023-03-11T15:58:42.642Z,99605.13
2023-03-11T16:01:11.636Z,99607.09
2023-03-11T16:03:40.380Z,99598.34
2023-03-11T16:06:09.825Z,99591.34
2023-03-11T16:08:38.285Z,99611.16
2023-03-11T16:11:07.727Z,99608.59
2023-03-11T16:13:36.546Z,99608.81
2023-03-11T16:16:05.955Z,99623.50
2023-03-11T16:18:36.285Z,99610.38
2023-03-11T16:21:10.632Z,99616.97
2023-03-11T16:23:51.002Z,99610.31
2023-03-11T16:26:23.241Z,99619.69
2023-03-11T16:28:52.155Z,99611.66
2023-03-11T16:31:22.010Z,99619.72
2023-03-11T16:33:51.260Z,99609.88
2023-03-11T16:36:20.259Z,99611.41
2023-03-11T16:38:50.915Z,99607.19
2023-03-11T16:41:19.921Z,99641.34
2023-03-11T16:43:49.392Z,99630.63
2023-03-11T16:46:18.168Z,99633.34
2023-03-11T16:48:46.832Z,99621.78
2023-03-11T16:51:15.571Z,99626.63
2023-03-11T16:53:44.034Z,99637.75
2023-03-11T16:56:12.419Z,99638.06
2023-03-11T16:58:41.665Z,99626.22
2023-03-11T17:01:12.828Z,99647.09
2023-03-11T17:03:43.945Z,99633.75
2023-03-11T17:06:12.380Z,99633.53
2023-03-11T17:08:44.339Z,99629.09
2023-03-11T17:11:19.434Z,99616.88
2023-03-11T17:13:48.360Z,99622.03
2023-03-11T17:16:17.968Z,99624.06
2023-03-11T17:18:47.490Z,99626.50
2023-03-11T17:21:17.872Z,99619.69
2023-03-11T17:23:46.389Z,99623.19
2023-03-11T17:26:18.092Z,99619.00
2023-03-11T17:28:47.305Z,99619.25
2023-03-11T17:31:18.066Z,99616.69
2023-03-11T17:33:47.954Z,99620.59
2023-03-11T17:36:18.168Z,99620.38
2023-03-11T17:38:48.514Z,99619.69
2023-03-11T17:41:19.105Z,99621.34
2023-03-11T17:43:51.540Z,99615.63
2023-03-11T17:46:23.801Z,99612.97
2023-03-11T17:48:53.191Z,99621.63
2023-03-11T17:51:24.261Z,99615.06
2023-03-11T17:53:56.756Z,99608.16
2023-03-11T17:56:27.250Z,99612.81
2023-03-11T17:59:00.432Z,99600.31
2023-03-11T18:01:30.852Z,99616.66
2023-03-11T18:04:01.978Z,99596.66
2023-03-11T18:06:31.400Z,99593.81
2023-03-11T18:09:00.968Z,99599.00
2023-03-11T18:11:31.285Z,99595.94
2023-03-11T18:14:00.991Z,99611.31
2023-03-11T18:16:32.795Z,99622.13
2023-03-11T18:19:04.301Z,99621.72
2023-03-11T18:21:34.080Z,99619.63
2023-03-11T18:24:03.141Z,99610.19
2023-03-11T18:26:31.732Z,99614.53
2023-03-11T18:29:06.530Z,99604.88
2023-03-11T18:31:35.484Z,99600.22
2023-03-11T18:34:06.108Z,99600.84
2023-03-11T18:36:38.361Z,99609.75
2023-03-11T18:39:07.837Z,99601.28
2023-03-11T18:41:36.299Z,99600.88
2023-03-11T18:44:06.272Z,99597.41
2023-03-11T18:46:37.651Z,99599.91
2023-03-11T18:49:06.842Z,99597.91
2023-03-11T18:51:36.033Z,99605.13
2023-03-11T18:54:05.014Z,99610.72
2023-03-11T18:56:34.680Z,99604.34
2023-03-11T18:59:04.328Z,99596.91
2023-03-11T19:01:35.711Z,99593.19
2023-03-11T19:04:04.622Z,99600.63
2023-03-11T19:06:34.539Z,99607.00
2023-03-11T19:09:04.389Z,99604.34
2023-03-11T19:11:34.437Z,99600.81
2023-03-11T19:14:03.834Z,99608.00
2023-03-11T19:16:32.543Z,99610.44
2023-03-11T19:19:03.010Z,99619.50
2023-03-11T19:21:31.996Z,99615.00
2023-03-11T19:24:00.909Z,99616.25
2023-03-11T19:26:43.875Z,99613.53
2023-03-11T19:29:15.228Z,99629.59
2023-03-11T19:31:47.264Z,99637.63
2023-03-11T19:34:16.359Z,99648.09
2023-03-11T19:36:44.614Z,99650.38
2023-03-11T19:39:14.079Z,99651.78
2023-03-11T19:41:43.180Z,99655.44
2023-03-11T19:44:11.876Z,99661.09
2023-03-11T19:46:40.706Z,99666.88
2023-03-11T19:49:09.940Z,99672.38
2023-03-11T19:51:49.001Z,99665.66
2023-03-11T19:54:19.902Z,99659.91
2023-03-11T19:56:48.773Z,99675.09
2023-03-11T19:59:18.034Z,99680.19
2023-03-11T20:01:47.394Z,99683.53
2023-03-11T20:04:17.013Z,99692.00
2023-03-11T20:06:47.028Z,99699.56
2023-03-11T20:09:16.805Z,99697.00
2023-03-11T20:11:46.394Z,99691.13
2023-03-11T20:14:15.809Z,99701.97
2023-03-11T20:16:44.402Z,99696.41
2023-03-11T20:19:14.519Z,99711.22
2023-03-11T20:21:45.708Z,99711.56
2023-03-11T20:24:14.749Z,99715.13
2023-03-11T20:26:43.740Z,99713.81
2023-03-11T20:29:12.267Z,99718.19
2023-03-11T20:31:40.679Z,99723.56
2023-03-11T20:34:10.436Z,99729.03
2023-03-11T20:36:40.082Z,99725.69
2023-03-11T20:39:10.454Z,99727.44
2023-03-11T20:41:41.784Z,99728.97
2023-03-11T20:44:14.360Z,99729.97
2023-03-11T20:46:44.731Z,99734.28
2023-03-11T20:49:14.280Z,99752.97
2023-03-11T20:51:44.409Z,99743.97
2023-03-11T20:54:14.199Z,99746.88
2023-03-11T20:56:43.314Z,99748.13
2023-03-11T20:59:16.923Z,99741.31
2023-03-11T21:01:48.427Z,99747.66
2023-03-11T21:04:17.253Z,99744.88
2023-03-11T21:06:50.335Z,99746.53
2023-03-11T21:09:20.259Z,99744.50
2023-03-11T21:11:50.239Z,99750.03
2023-03-11T21:14:19.743Z,99755.94
2023-03-11T21:16:49.199Z,99757.41
2023-03-11T21:19:18.684Z,99763.78
2023-03-11T21:21:47.976Z,99757.22
2023-03-11T21:24:16.548Z,99771.28
2023-03-11T21:26:45.251Z,99769.75
2023-03-11T21:29:17.523Z,99768.59
2023-03-11T21:31:46.499Z,99770.59
2023-03-11T21:34:15.468Z,99777.06
2023-03-11T21:36:44.337Z,99778.34
2023-03-11T21:39:15.798Z,99800.19
2023-03-11T21:41:44.300Z,99806.78
2023-03-11T21:44:12.738Z,99808.31
2023-03-11T21:46:42.640Z,99809.38
2023-03-11T21:49:11.837Z,99807.44
2023-03-11T21:51:40.570Z,99807.69
2023-03-11T21:54:11.335Z,99805.00
2023-03-11T21:56:40.252Z,99817.66
2023-03-11T21:59:09.809Z,99815.03
2023-03-11T22:01:38.658Z,99823.88
2023-03-11T22:04:07.638Z,99826.34
2023-03-11T22:06:36.167Z,99834.09
2023-03-11T22:09:05.189Z,99829.69
2023-03-11T22:11:34.311Z,99835.88
2023-03-11T22:14:03.528Z,99830.69
2023-03-11T22:16:32.417Z,99831.00
2023-03-11T22:19:00.927Z,99838.91
2023-03-11T22:21:30.515Z,99842.94
2023-03-11T22:24:00.420Z,99844.78
2023-03-11T22:26:29.993Z,99855.69
2023-03-11T22:28:59.188Z,99850.75
2023-03-11T22:31:28.481Z,99856.28
2023-03-11T22:33:59.989Z,99859.03
2023-03-11T22:36:31.549Z,99864.75
2023-03-11T22:39:03.419Z,99866.78
2023-03-11T22:41:34.953Z,99871.28
2023-03-11T22:44:04.298Z,99876.72
2023-03-11T22:46:32.706Z,99877.88
2023-03-11T22:49:02.140Z,99886.28
2023-03-11T22:51:31.156Z,99891.56
2023-03-11T22:54:01.932Z,99890.66
2023-03-11T22:56:30.287Z,99888.47
2023-03-11T22:59:00.283Z,99889.69
2023-03-11T23:01:30.078Z,99894.19
2023-03-11T23:03:59.917Z,99892.31
2023-03-11T23:06:29.543Z,99895.44
2023-03-11T23:09:00.426Z,99898.13
2023-03-11T23:11:30.011Z,99899.94
2023-03-11T23:14:01.851Z,99904.50
2023-03-11T23:16:31.819Z,99903.03
2023-03-11T23:19:01.891Z,99904.53
2023-03-11T23:21:33.373Z,99905.72
2023-03-11T23:24:06.304Z,99916.13
2023-03-11T23:26:35.704Z,99917.69
2023-03-11T23:29:05.408Z,99930.44
2023-03-11T23:31:34.350Z,99936.63
2023-03-11T23:34:02.896Z,99942.28
2023-03-11T23:36:31.662Z,99948.13
2023-03-11T23:39:01.736Z,99955.28
2023-03-11T23:41:31.521Z,99967.09
2023-03-11T23:44:00.654Z,99966.75
2023-03-11T23:46:30.575Z,99991.09
2023-03-11T23:49:02.009Z,99994.47
2023-03-11T23:51:30.417Z,99993.38
2023-03-11T23:53:59.949Z,100000.25
2023-03-11T23:56:29.808Z,100009.09
2023-03-11T23:58:59.611Z,100024.41
